createdAt,value
2023-01-06T00:00:15.506Z,-19.72
2023-01-06T00:02:46.557Z,-19.56
2023-01-06T00:05:16.582Z,-19.68
2023-01-06T00:07:55.238Z,-19.82
2023-01-06T00:10:25.469Z,-19.82
2023-01-06T00:12:54.959Z,-20.14
2023-01-06T00:15:29.181Z,-20.01
2023-01-06T00:17:58.469Z,-19.89
2023-01-06T00:20:28.047Z,-19.87
2023-01-06T00:23:05.031Z,-20.00
2023-01-06T00:25:34.574Z,-20.16
2023-01-06T00:28:03.837Z,-20.04
2023-01-06T00:30:35.258Z,-20.32
2023-01-06T00:33:04.410Z,-20.27
2023-01-06T00:35:34.393Z,-20.38
2023-01-06T00:38:05.926Z,-20.45
2023-01-06T00:40:35.186Z,-20.39
2023-01-06T00:43:04.447Z,-20.37
2023-01-06T00:45:34.127Z,-20.65
2023-01-06T00:48:03.288Z,-20.50
2023-01-06T00:50:32.338Z,-20.40
2023-01-06T00:53:02.078Z,-20.43
2023-01-06T00:55:33.158Z,-20.39
2023-01-06T00:58:02.733Z,-20.46
2023-01-06T01:00:36.883Z,-20.84
2023-01-06T01:03:11.153Z,-20.78
2023-01-06T01:05:40.434Z,-20.84
2023-01-06T01:08:10.701Z,-20.93
2023-01-06T01:10:41.962Z,-20.83
2023-01-06T01:13:11.063Z,-21.04
2023-01-06T01:15:40.181Z,-20.98
2023-01-06T01:18:09.526Z,-21.06
2023-01-06T01:20:38.757Z,-20.92
2023-01-06T01:23:07.898Z,-21.08
2023-01-06T01:25:36.996Z,-21.12
2023-01-06T01:28:13.248Z,-21.40
2023-01-06T01:30:43.309Z,-21.20
2023-01-06T01:33:14.114Z,-21.45
2023-01-06T01:35:48.381Z,-21.26
2023-01-06T01:38:17.677Z,-21.09
2023-01-06T01:40:49.884Z,-21.14
2023-01-06T01:43:20.973Z,-21.20
2023-01-06T01:45:52.481Z,-21.25
2023-01-06T01:48:34.809Z,-21.43
2023-01-06T01:51:06.974Z,-21.58
2023-01-06T01:53:42.205Z,-21.47
2023-01-06T01:56:20.595Z,-21.58
2023-01-06T01:58:57.699Z,-21.44
2023-01-06T02:01:27.428Z,-21.50
2023-01-06T02:03:57.096Z,-21.59
2023-01-06T02:06:27.672Z,-21.58
2023-01-06T02:09:08.638Z,-21.68
2023-01-06T02:11:44.082Z,-21.83
2023-01-06T02:14:18.525Z,-21.40
2023-01-06T02:17:04.243Z,-21.70
2023-01-06T02:20:13.346Z,-21.56
2023-01-06T02:23:33.056Z,-21.71
2023-01-06T02:26:44.412Z,-21.84
2023-01-06T02:29:42.100Z,-22.11
2023-01-06T02:32:31.159Z,-21.81
2023-01-06T02:35:11.953Z,-21.85
2023-01-06T02:37:53.596Z,-22.08
2023-01-06T02:40:46.070Z,-22.08
2023-01-06T02:43:22.130Z,-22.09
2023-01-06T02:46:03.176Z,-22.16
2023-01-06T02:48:46.405Z,-22.03
2023-01-06T02:51:25.362Z,-22.05
2023-01-06T02:54:12.466Z,-22.01
2023-01-06T02:56:54.012Z,-21.93
2023-01-06T02:59:27.759Z,-22.24
2023-01-06T03:01:58.063Z,-22.40
2023-01-06T03:04:39.123Z,-22.49
2023-01-06T03:07:10.632Z,-22.27
2023-01-06T03:09:41.386Z,-22.20
2023-01-06T03:12:17.942Z,-22.34
2023-01-06T03:14:51.203Z,-22.42
2023-01-06T03:17:27.255Z,-22.30
2023-01-06T03:19:58.880Z,-22.39
2023-01-06T03:22:29.135Z,-22.42
2023-01-06T03:24:59.326Z,-22.42
2023-01-06T03:27:30.503Z,-22.40
2023-01-06T03:30:00.505Z,-22.15
2023-01-06T03:32:37.073Z,-22.17
2023-01-06T03:35:24.066Z,-21.89
2023-01-06T03:40:39.797Z,-21.84
2023-01-06T03:43:19.484Z,-22.12
2023-01-06T03:45:59.294Z,-22.33
2023-01-06T03:48:45.491Z,-22.19
2023-01-06T03:51:27.452Z,-22.04
2023-01-06T03:54:06.162Z,-21.85
2023-01-06T03:56:41.501Z,-21.86
2023-01-06T03:59:21.300Z,-21.84
2023-01-06T04:01:53.265Z,-21.72
2023-01-06T04:04:28.460Z,-21.65
2023-01-06T04:06:59.888Z,-21.65
2023-01-06T04:09:29.509Z,-21.64
2023-01-06T04:12:11.509Z,-21.94
2023-01-06T04:14:47.355Z,-21.96
2023-01-06T04:17:16.772Z,-22.16
2023-01-06T04:19:46.252Z,-22.26
2023-01-06T04:22:17.820Z,-22.04
2023-01-06T04:24:47.024Z,-22.06
2023-01-06T04:27:16.300Z,-22.25
2023-01-06T04:29:50.722Z,-22.50
2023-01-06T04:32:20.274Z,-22.39
2023-01-06T04:34:49.752Z,-22.48
2023-01-06T04:37:23.178Z,-22.54
2023-01-06T04:39:52.616Z,-22.54
2023-01-06T04:42:21.693Z,-22.41
2023-01-06T04:44:51.137Z,-22.49
2023-01-06T04:47:20.224Z,-22.30
2023-01-06T04:49:49.428Z,-22.37
2023-01-06T04:52:18.589Z,-22.58
2023-01-06T04:54:49.928Z,-22.65
2023-01-06T04:57:19.039Z,-22.29
2023-01-06T04:59:48.202Z,-22.22
2023-01-06T05:02:17.341Z,-22.24
2023-01-06T05:04:48.087Z,-22.48
2023-01-06T05:07:17.398Z,-22.75
2023-01-06T05:09:46.621Z,-22.71
2023-01-06T05:12:17.884Z,-22.71
2023-01-06T05:14:47.535Z,-23.05
2023-01-06T05:17:16.649Z,-22.63
2023-01-06T05:19:50.918Z,-22.77
2023-01-06T05:22:20.178Z,-22.74
2023-01-06T05:24:55.832Z,-22.76
2023-01-06T05:27:32.752Z,-22.78
2023-01-06T05:30:02.302Z,-22.82
2023-01-06T05:32:32.503Z,-22.92
2023-01-06T05:35:02.247Z,-22.83
2023-01-06T05:37:38.009Z,-22.78
2023-01-06T05:40:09.301Z,-22.93
2023-01-06T05:42:40.483Z,-22.75
2023-01-06T05:45:12.083Z,-22.75
2023-01-06T05:47:46.392Z,-22.64
2023-01-06T05:50:15.720Z,-22.52
2023-01-06T05:52:44.909Z,-22.51
2023-01-06T05:55:19.130Z,-22.46
2023-01-06T05:57:50.282Z,-22.47
2023-01-06T06:00:19.279Z,-22.24
2023-01-06T06:02:48.555Z,-22.24
2023-01-06T06:05:17.991Z,-22.58
2023-01-06T06:08:04.278Z,-22.54
2023-01-06T06:10:36.128Z,-22.60
2023-01-06T06:13:07.462Z,-22.57
2023-01-06T06:15:36.751Z,-22.53
2023-01-06T06:18:16.826Z,-22.40
2023-01-06T06:20:46.098Z,-22.27
2023-01-06T06:23:15.199Z,-22.29
2023-01-06T06:25:49.440Z,-22.41
2023-01-06T06:28:20.626Z,-22.23
2023-01-06T06:30:55.712Z,-22.21
2023-01-06T06:33:25.073Z,-22.13
2023-01-06T06:35:59.378Z,-22.11
2023-01-06T06:38:28.982Z,-22.15
2023-01-06T06:41:03.363Z,-22.39
2023-01-06T06:43:34.753Z,-22.38
2023-01-06T06:46:04.134Z,-22.43
2023-01-06T06:48:33.422Z,-22.17
2023-01-06T06:51:04.282Z,-22.06
2023-01-06T06:53:34.664Z,-22.10
2023-01-06T06:56:04.169Z,-21.96
2023-01-06T06:58:40.700Z,-21.90
2023-01-06T07:01:11.669Z,-22.21
2023-01-06T07:03:41.483Z,-22.17
2023-01-06T07:06:13.623Z,-21.88
2023-01-06T07:08:45.731Z,-21.85
2023-01-06T07:11:15.220Z,-21.77
2023-01-06T07:13:46.409Z,-21.74
2023-01-06T07:16:15.980Z,-21.73
2023-01-06T07:18:46.528Z,-21.75
2023-01-06T07:21:25.799Z,-21.76
2023-01-06T07:23:54.970Z,-21.71
2023-01-06T07:26:24.097Z,-21.71
2023-01-06T07:28:55.142Z,-21.66
2023-01-06T07:31:23.942Z,-21.70
2023-01-06T07:33:54.119Z,-21.87
2023-01-06T07:36:23.367Z,-21.63
2023-01-06T07:38:52.486Z,-21.51
2023-01-06T07:41:26.720Z,-21.67
2023-01-06T07:44:02.868Z,-21.77
2023-01-06T07:46:32.241Z,-21.67
2023-01-06T07:49:01.319Z,-21.47
2023-01-06T07:51:30.864Z,-21.30
2023-01-06T07:54:00.067Z,-21.19
2023-01-06T07:56:29.985Z,-21.04
2023-01-06T07:59:01.586Z,-21.19
2023-01-06T08:01:30.899Z,-21.18
2023-01-06T08:04:00.481Z,-21.08
2023-01-06T08:06:30.094Z,-21.05
2023-01-06T08:08:59.210Z,-20.97
2023-01-06T08:11:28.703Z,-21.32
2023-01-06T08:13:58.253Z,-21.40
2023-01-06T08:16:29.451Z,-21.47
2023-01-06T08:18:58.216Z,-21.33
2023-01-06T08:24:08.395Z,-21.05
2023-01-06T08:26:37.686Z,-21.19
2023-01-06T08:29:16.979Z,-20.88
2023-01-06T08:31:48.114Z,-20.78
2023-01-06T08:34:22.586Z,-21.14
2023-01-06T08:36:52.316Z,-20.99
2023-01-06T08:39:26.564Z,-20.66
2023-01-06T08:41:55.930Z,-20.53
2023-01-06T08:44:25.020Z,-20.60
2023-01-06T08:46:56.170Z,-20.28
2023-01-06T08:49:25.022Z,-20.07
2023-01-06T08:51:54.452Z,-20.13
2023-01-06T08:54:23.859Z,-20.17
2023-01-06T08:56:53.556Z,-20.15
2023-01-06T08:59:22.805Z,-20.19
2023-01-06T09:01:52.322Z,-19.96
2023-01-06T09:04:24.272Z,-20.26
2023-01-06T09:06:53.440Z,-20.11
2023-01-06T09:09:22.532Z,-20.15
2023-01-06T09:11:51.679Z,-20.03
2023-01-06T09:14:25.889Z,-20.08
2023-01-06T09:16:55.168Z,-20.01
2023-01-06T09:19:31.577Z,-19.97
2023-01-06T09:22:01.178Z,-20.02
2023-01-06T09:24:30.913Z,-19.94
2023-01-06T09:27:05.209Z,-19.96
2023-01-06T09:29:34.482Z,-20.19
2023-01-06T09:32:03.572Z,-20.34
2023-01-06T09:34:34.963Z,-20.36
2023-01-06T09:37:04.668Z,-20.29
2023-01-06T09:39:33.756Z,-20.11
2023-01-06T09:42:26.998Z,-19.93
2023-01-06T09:44:59.258Z,-19.92
2023-01-06T09:47:37.759Z,-19.89
2023-01-06T09:50:15.172Z,-19.99
2023-01-06T09:52:53.589Z,-20.26
2023-01-06T09:55:31.920Z,-20.10
2023-01-06T09:58:05.843Z,-19.89
2023-01-06T10:00:40.747Z,-19.84
2023-01-06T10:03:17.191Z,-19.84
2023-01-06T10:06:01.087Z,-20.01
2023-01-06T10:08:39.628Z,-20.09
2023-01-06T10:11:16.856Z,-19.93
2023-01-06T10:14:02.547Z,-19.54
2023-01-06T10:16:51.611Z,-19.38
2023-01-06T10:19:31.491Z,-19.42
2023-01-06T10:22:08.437Z,-19.72
2023-01-06T10:24:56.811Z,-19.94
2023-01-06T10:27:41.987Z,-19.79
2023-01-06T10:30:20.692Z,-19.71
2023-01-06T10:32:52.525Z,-19.90
2023-01-06T10:35:29.513Z,-19.60
2023-01-06T10:38:05.306Z,-19.54
2023-01-06T10:40:35.933Z,-19.64
2023-01-06T10:43:08.437Z,-19.55
2023-01-06T10:45:40.948Z,-19.62
2023-01-06T10:48:15.077Z,-19.73
2023-01-06T10:50:45.166Z,-19.56
2023-01-06T10:53:18.044Z,-19.50
2023-01-06T10:55:55.877Z,-19.40
2023-01-06T10:58:37.474Z,-19.32
2023-01-06T11:01:11.387Z,-19.49
2023-01-06T11:03:42.191Z,-19.42
2023-01-06T11:06:18.020Z,-19.88
2023-01-06T11:08:56.037Z,-19.65
2023-01-06T11:11:28.852Z,-19.72
2023-01-06T11:14:05.070Z,-19.57
2023-01-06T11:16:44.659Z,-19.31
2023-01-06T11:19:26.725Z,-19.43
2023-01-06T11:21:55.986Z,-19.29
2023-01-06T11:24:28.783Z,-19.41
2023-01-06T11:26:59.428Z,-19.33
2023-01-06T11:29:31.327Z,-19.54
2023-01-06T11:32:06.375Z,-19.29
2023-01-06T11:34:35.917Z,-19.22
2023-01-06T11:37:05.617Z,-19.17
2023-01-06T11:39:40.269Z,-19.39
2023-01-06T11:42:15.145Z,-19.62
2023-01-06T11:44:45.248Z,-19.41
2023-01-06T11:47:17.772Z,-19.60
2023-01-06T11:49:51.524Z,-19.45
2023-01-06T11:52:30.800Z,-19.64
2023-01-06T11:55:04.931Z,-19.96
2023-01-06T11:57:43.345Z,-19.62
2023-01-06T12:00:36.299Z,-19.48
2023-01-06T12:03:15.298Z,-19.33
2023-01-06T12:05:53.228Z,-19.32
2023-01-06T12:08:26.280Z,-19.49
2023-01-06T12:11:09.148Z,-19.65
2023-01-06T12:13:44.769Z,-19.66
2023-01-06T12:16:25.888Z,-19.72
2023-01-06T12:18:55.613Z,-19.90
2023-01-06T12:21:36.289Z,-19.82
2023-01-06T12:24:08.875Z,-19.69
2023-01-06T12:26:40.395Z,-19.67
2023-01-06T12:29:11.021Z,-19.82
2023-01-06T12:31:49.824Z,-20.30
2023-01-06T12:34:24.191Z,-20.08
2023-01-06T12:37:00.930Z,-20.16
2023-01-06T12:39:41.659Z,-20.07
2023-01-06T12:42:21.436Z,-20.22
2023-01-06T12:44:55.336Z,-20.38
2023-01-06T12:54:30.855Z,-20.62
2023-01-06T12:57:16.308Z,-20.55
2023-01-06T12:59:54.849Z,-20.34
2023-01-06T13:02:40.590Z,-20.34
2023-01-06T13:05:31.857Z,-20.35
2023-01-06T13:08:08.471Z,-20.50
2023-01-06T13:10:46.630Z,-20.54
2023-01-06T13:13:39.432Z,-20.56
2023-01-06T13:16:20.302Z,-20.65
2023-01-06T13:19:02.192Z,-20.56
2023-01-06T13:21:34.057Z,-20.39
2023-01-06T13:24:31.470Z,-20.32
2023-01-06T13:27:21.426Z,-20.40
2023-01-06T13:30:19.205Z,-20.54
2023-01-06T13:33:19.042Z,-20.44
2023-01-06T13:36:06.609Z,-20.59
2023-01-06T13:38:54.283Z,-20.63
2023-01-06T13:41:27.889Z,-20.62
2023-01-06T13:44:01.012Z,-20.70
2023-01-06T13:46:32.586Z,-20.78
2023-01-06T13:49:04.980Z,-20.31
2023-01-06T13:51:36.750Z,-20.44
2023-01-06T13:54:11.512Z,-20.58
2023-01-06T13:56:40.900Z,-20.66
2023-01-06T13:59:29.082Z,-20.57
2023-01-06T14:01:59.251Z,-20.88
2023-01-06T14:04:48.327Z,-20.92
2023-01-06T14:07:36.198Z,-20.91
2023-01-06T14:10:08.461Z,-21.06
2023-01-06T14:12:39.060Z,-21.11
2023-01-06T14:15:33.049Z,-21.01
2023-01-06T14:18:04.201Z,-20.94
2023-01-06T14:20:42.371Z,-20.84
2023-01-06T14:23:24.606Z,-20.92
2023-01-06T14:25:56.926Z,-21.01
2023-01-06T14:28:38.750Z,-21.15
2023-01-06T14:31:49.315Z,-21.20
2023-01-06T14:34:23.008Z,-21.19
2023-01-06T14:36:55.712Z,-21.05
2023-01-06T14:39:28.364Z,-21.13
2023-01-06T14:42:04.329Z,-21.18
2023-01-06T14:44:43.915Z,-21.12
2023-01-06T14:47:18.378Z,-21.18
2023-01-06T14:49:59.231Z,-21.20
2023-01-06T14:55:29.451Z,-21.53
2023-01-06T14:57:59.055Z,-21.54
2023-01-06T15:00:29.718Z,-21.62
2023-01-06T15:03:05.813Z,-21.55
2023-01-06T15:05:39.415Z,-21.55
2023-01-06T15:08:18.013Z,-21.72
2023-01-06T15:10:49.405Z,-21.53
2023-01-06T15:13:25.831Z,-21.70
2023-01-06T15:15:56.448Z,-21.70
2023-01-06T15:18:26.223Z,-21.90
2023-01-06T15:20:57.946Z,-21.84
2023-01-06T15:23:28.660Z,-22.01
2023-01-06T15:26:02.874Z,-21.96
2023-01-06T15:28:34.705Z,-21.63
2023-01-06T15:31:04.510Z,-21.88
2023-01-06T15:33:39.180Z,-22.03
2023-01-06T15:36:24.095Z,-22.17
2023-01-06T15:39:02.989Z,-22.09
2023-01-06T15:41:36.717Z,-21.98
2023-01-06T15:44:23.495Z,-22.23
2023-01-06T15:46:55.158Z,-22.24
2023-01-06T15:49:29.495Z,-22.20
2023-01-06T15:52:05.451Z,-22.13
2023-01-06T15:54:39.750Z,-22.06
2023-01-06T15:57:17.081Z,-22.04
2023-01-06T15:59:56.097Z,-22.05
2023-01-06T16:02:28.377Z,-22.12
2023-01-06T16:05:02.785Z,-21.96
2023-01-06T16:07:44.274Z,-22.06
2023-01-06T16:10:32.467Z,-22.14
2023-01-06T16:13:18.730Z,-22.23
2023-01-06T16:15:50.273Z,-22.51
2023-01-06T16:18:28.380Z,-22.28
2023-01-06T16:20:59.721Z,-22.28
2023-01-06T16:23:34.739Z,-22.22
2023-01-06T16:26:12.459Z,-22.29
2023-01-06T16:28:50.747Z,-22.26
2023-01-06T16:31:31.240Z,-22.35
2023-01-06T16:34:18.516Z,-22.42
2023-01-06T16:36:47.745Z,-22.42
2023-01-06T16:39:24.110Z,-22.36
2023-01-06T16:42:42.229Z,-22.39
2023-01-06T16:45:19.304Z,-22.34
2023-01-06T16:47:54.542Z,-22.33
2023-01-06T16:50:30.658Z,-22.30
2023-01-06T16:53:07.776Z,-22.54
2023-01-06T16:55:39.793Z,-22.41
2023-01-06T16:58:16.525Z,-22.33
2023-01-06T17:00:50.976Z,-22.43
2023-01-06T17:03:22.414Z,-22.40
2023-01-06T17:05:52.724Z,-22.38
2023-01-06T17:08:26.478Z,-22.59
2023-01-06T17:11:03.802Z,-22.57
2023-01-06T17:13:45.416Z,-22.96
2023-01-06T17:16:17.268Z,-22.77
2023-01-06T17:18:54.139Z,-22.43
2023-01-06T17:21:26.102Z,-22.67
2023-01-06T17:23:59.462Z,-22.61
2023-01-06T17:26:36.926Z,-22.58
2023-01-06T17:29:15.042Z,-22.65
2023-01-06T17:34:38.612Z,-22.66
2023-01-06T17:37:13.981Z,-22.64
2023-01-06T17:39:44.869Z,-22.89
2023-01-06T17:42:32.618Z,-22.64
2023-01-06T17:45:02.862Z,-22.79
2023-01-06T17:47:50.054Z,-22.76
2023-01-06T17:50:29.383Z,-23.04
2023-01-06T17:53:27.945Z,-22.98
2023-01-06T17:55:57.236Z,-22.93
2023-01-06T17:58:33.112Z,-22.92
2023-01-06T18:01:03.199Z,-22.85
2023-01-06T18:03:35.011Z,-22.93
2023-01-06T18:06:20.600Z,-22.66
2023-01-06T18:08:51.058Z,-22.67
2023-01-06T18:11:36.173Z,-22.90
2023-01-06T18:14:19.971Z,-22.87
2023-01-06T18:16:51.699Z,-22.99
2023-01-06T18:19:40.073Z,-22.93
2023-01-06T18:22:18.473Z,-22.86
2023-01-06T18:24:49.343Z,-22.79
2023-01-06T18:27:21.252Z,-22.80
2023-01-06T18:29:58.492Z,-22.97
2023-01-06T18:32:34.779Z,-23.02
2023-01-06T18:35:18.434Z,-22.92
2023-01-06T18:37:47.700Z,-22.94
2023-01-06T18:40:20.743Z,-23.04
2023-01-06T18:42:51.758Z,-23.01
2023-01-06T18:45:26.706Z,-23.03
2023-01-06T18:47:57.924Z,-23.16
2023-01-06T18:50:37.069Z,-23.03
2023-01-06T18:53:19.606Z,-22.99
2023-01-06T18:55:59.987Z,-23.01
2023-01-06T19:01:42.873Z,-22.92
2023-01-06T19:04:21.658Z,-23.26
2023-01-06T19:06:54.171Z,-22.86
2023-01-06T19:09:37.425Z,-22.82
2023-01-06T19:12:35.809Z,-22.90
2023-01-06T19:15:20.332Z,-22.82
2023-01-06T19:17:58.455Z,-22.72
2023-01-06T19:20:36.969Z,-22.75
2023-01-06T19:23:17.849Z,-22.84
2023-01-06T19:25:52.691Z,-22.79
2023-01-06T19:28:24.507Z,-22.86
2023-01-06T19:30:56.608Z,-23.00
2023-01-06T19:33:49.550Z,-22.70
2023-01-06T19:36:42.695Z,-22.75
2023-01-06T19:39:30.537Z,-22.91
2023-01-06T19:42:15.383Z,-22.92
2023-01-06T19:44:45.783Z,-23.00
2023-01-06T19:47:20.209Z,-23.15
2023-01-06T19:49:55.622Z,-23.12
2023-01-06T19:52:37.474Z,-23.03
2023-01-06T19:55:25.048Z,-22.98
2023-01-06T19:58:04.256Z,-23.05
2023-01-06T20:00:48.854Z,-23.35
2023-01-06T20:03:28.598Z,-23.15
2023-01-06T20:06:00.021Z,-22.94
2023-01-06T20:08:32.391Z,-22.95
2023-01-06T20:11:07.189Z,-22.91
2023-01-06T20:13:36.459Z,-22.93
2023-01-06T20:16:06.892Z,-22.97
2023-01-06T20:18:36.073Z,-22.97
2023-01-06T20:21:12.706Z,-23.06
2023-01-06T20:23:42.134Z,-23.01
2023-01-06T20:26:11.213Z,-23.23
2023-01-06T20:28:45.628Z,-23.16
2023-01-06T20:31:15.164Z,-22.95
2023-01-06T20:33:45.602Z,-22.83
2023-01-06T20:36:22.299Z,-22.79
2023-01-06T20:38:51.850Z,-22.78
2023-01-06T20:41:20.975Z,-22.68
2023-01-06T20:43:50.163Z,-22.61
2023-01-06T20:48:54.408Z,-22.63
2023-01-06T20:51:25.601Z,-22.82
2023-01-06T20:53:54.439Z,-22.73
2023-01-06T20:56:24.107Z,-22.76
2023-01-06T20:58:53.424Z,-22.70
2023-01-06T21:01:23.039Z,-22.77
2023-01-06T21:03:57.227Z,-22.82
2023-01-06T21:06:28.346Z,-22.90
2023-01-06T21:08:57.306Z,-22.79
2023-01-06T21:11:26.500Z,-22.74
2023-01-06T21:14:02.352Z,-22.73
2023-01-06T21:16:31.724Z,-22.86
2023-01-06T21:19:00.825Z,-22.77
2023-01-06T21:21:32.042Z,-23.03
2023-01-06T21:24:01.579Z,-22.82
2023-01-06T21:26:30.771Z,-22.83
2023-01-06T21:29:00.466Z,-22.81
2023-01-06T21:31:29.818Z,-22.92
2023-01-06T21:34:04.302Z,-23.00
2023-01-06T21:39:28.770Z,-22.98
2023-01-06T21:42:10.933Z,-22.98
2023-01-06T21:44:40.199Z,-22.94
2023-01-06T21:49:49.402Z,-23.07
2023-01-06T21:52:20.763Z,-22.80
2023-01-06T21:54:51.751Z,-22.83
2023-01-06T21:57:20.652Z,-22.74
2023-01-06T21:59:49.950Z,-22.87
2023-01-06T22:02:19.082Z,-22.92
2023-01-06T22:04:48.842Z,-22.86
2023-01-06T22:07:20.963Z,-23.03
2023-01-06T22:09:50.673Z,-23.15
2023-01-06T22:12:21.779Z,-23.02
2023-01-06T22:14:52.268Z,-22.98
2023-01-06T22:17:27.250Z,-23.00
2023-01-06T22:19:57.504Z,-22.91
2023-01-06T22:22:31.296Z,-22.91
2023-01-06T22:25:02.812Z,-22.92
2023-01-06T22:27:32.565Z,-23.00
2023-01-06T22:30:07.829Z,-22.94
2023-01-06T22:32:49.537Z,-22.89
2023-01-06T22:35:20.223Z,-22.74
2023-01-06T22:37:51.618Z,-22.76
2023-01-06T22:40:21.398Z,-23.08
2023-01-06T22:42:57.532Z,-22.86
2023-01-06T22:48:10.516Z,-23.02
2023-01-06T22:53:33.372Z,-23.05
2023-01-06T22:56:03.958Z,-22.96
2023-01-06T22:58:34.099Z,-22.83
2023-01-06T23:01:03.262Z,-22.87
2023-01-06T23:03:32.513Z,-22.92
2023-01-06T23:06:08.621Z,-22.93
2023-01-06T23:08:51.117Z,-22.95
2023-01-06T23:11:32.161Z,-22.92
2023-01-06T23:14:06.540Z,-23.02
2023-01-06T23:16:42.657Z,-22.92
2023-01-06T23:19:14.561Z,-22.85
2023-01-06T23:21:53.934Z,-22.73
2023-01-06T23:24:25.183Z,-22.84
2023-01-06T23:29:38.208Z,-22.77
2023-01-06T23:34:56.956Z,-22.76
2023-01-06T23:37:26.229Z,-22.76
2023-01-06T23:39:57.382Z,-22.71
2023-01-06T23:42:37.542Z,-22.77
2023-01-06T23:45:13.607Z,-22.94
2023-01-06T23:47:42.770Z,-22.86
2023-01-06T23:50:18.923Z,-22.89
2023-01-06T23:52:58.076Z,-22.89
2023-01-06T23:55:29.217Z,-22.85
2023-01-06T23:58:03.430Z,-22.66
